Terminal Aerodrome Forecast
Issued by NWS

Home | Current Version | Previous Version | Text Only | Print | Product List | Glossary On
Versions: 1 2 3 4 5 6 7 8 9 10 11 12 13 14 15 16
000
FTUS44 KLZK 182300 RRA
TAFADF
TAF
KADF 182341Z 1900/1924 03005KT 6SM BR OVC006
     FM190400 05003KT 4SM -DZ BR OVC004
      TEMPO 1909/1913 1SM -DZ BR OVC002
     FM191600 05005KT 6SM BR VCSH OVC007
     FM192000 06005KT 6SM BR OVC015=

USA.gov is the U.S. government's official web portal to all federal, state and local government web resources and services.